This demonstration page uses our WeatherBlox Daily Observations layout. Learn more.

39.29038, -76.61219

Hourly Observations for September 22, 2020

Temp ( °F °C ) Dew Point ( °F °C ) Humidity (%) Winds ( mph kmh ) Pressure ( in mb ) Visibility ( mi km ) Precip ( " mm )
12:54 am 00:54 Clear 46 7.8 42 5.6 86 86 W 5 7 30.35 1028 10 16.0934 0 0
1:54 am 01:54 Clear 46 7.8 40 4.4 79 79 Calm 30.33 1027 10 16.0934 0 0
2:54 am 02:54 Clear 45 7.2 41 5 86 86 Calm 30.32 1027 10 16.0934 0 0
3:54 am 03:54 Clear 44 6.7 40 4.4 85 85 W 3 6 30.3 1026 10 16.0934 0 0
4:54 am 04:54 Clear 41 5 38 3.3 89 89 W 5 7 30.28 1026 10 16.0934 0 0
5:54 am 05:54 Mostly Clear 43 6.1 40 4.4 89 89 W 3 6 30.28 1025 10 16.0934 0 0
6:54 am 06:54 Mostly Clear 43 6.1 39 3.9 86 86 Calm 30.27 1025 10 16.0934 0 0
7:54 am 07:54 Sunny 46 7.8 41 5 83 83 W 3 6 30.26 1025 10 16.0934 0 0
8:54 am 08:54 Sunny 54 12.2 43 6.1 67 67 WNW 5 7 30.25 1024 10 16.0934 0 0
9:54 am 09:54 Mostly Sunny 61 16.1 42 5.6 50 50 N 5 7 30.25 1024 10 16.0934 0 0
10:54 am 10:54 Mostly Sunny 65 18.3 41 5 42 42 NW 8 13 30.23 1024 10 16.0934 0 0
11:54 am 11:54 Mostly Sunny 68 20 40 4.4 36 36 WNW 7 11 30.19 1022 10 16.0934 0 0
12:54 pm 12:54 Sunny 70 21.1 39 3.9 32 32 NW 9 15 30.16 1021 10 16.0934 0 0
1:54 pm 13:54 Mostly Sunny 72 22.2 39 3.9 30 30 WNW 13 20 30.1 1019 10 16.0934 0 0
2:54 pm 14:54 Mostly Sunny 73 22.8 40 4.4 30 30 W 10 17 30.06 1018 10 16.0934 0 0
3:54 pm 15:54 Mostly Sunny 73 22.8 40 4.4 30 30 W 13 20 30.03 1017 10 16.0934 0 0
4:54 pm 16:54 Mostly Sunny 72 22.2 41 5 33 33 W 14 22 30.02 1017 10 16.0934 0 0
5:54 pm 17:54 Mostly Sunny 69 20.6 42 5.6 38 38 W 10 17 30.01 1016 10 16.0934 0 0
6:54 pm 18:54 Mostly Sunny 64 17.8 42 5.6 45 45 W 7 11 30 1016 10 16.0934 0 0
7:54 pm 19:54 Mostly Clear 60 15.6 44 6.7 56 56 W 5 7 30 1016 10 16.0934 0 0
8:54 pm 20:54 Mostly Clear 56 13.3 45 7.2 67 67 WSW 5 7 30 1016 10 16.0934 0 0
9:54 pm 21:54 Mostly Clear 56 13.3 44 6.7 65 65 W 6 9 29.99 1016 10 16.0934 0 0
10:54 pm 22:54 Mostly Clear 56 13.3 44 6.7 65 65 W 9 15 29.98 1015 10 16.0934 0 0
11:54 pm 23:54 Partly Cloudy 57 13.9 44 6.7 62 62 W 7 11 29.98 1015 10 16.0934 0 0

Powered by AerisWeather